sensor_id;sensor_type;location;lat;lon;timestamp;P1;durP1;ratioP1;P2;durP2;ratioP2
8982;SDS011;20979;59.850;10.660;2024-01-30T00:01:08;9.27;;;5.70;;
8982;SDS011;20979;59.850;10.660;2024-01-30T00:03:35;7.60;;;5.20;;
8982;SDS011;20979;59.850;10.660;2024-01-30T00:06:02;10.20;;;5.07;;
8982;SDS011;20979;59.850;10.660;2024-01-30T00:08:30;12.17;;;5.03;;
8982;SDS011;20979;59.850;10.660;2024-01-30T00:10:58;8.97;;;4.97;;
8982;SDS011;20979;59.850;10.660;2024-01-30T00:13:26;8.50;;;4.70;;
8982;SDS011;20979;59.850;10.660;2024-01-30T00:15:55;6.93;;;4.47;;
8982;SDS011;20979;59.850;10.660;2024-01-30T00:18:22;7.87;;;4.37;;
8982;SDS011;20979;59.850;10.660;2024-01-30T00:20:50;9.03;;;5.00;;
8982;SDS011;20979;59.850;10.660;2024-01-30T00:23:18;6.67;;;5.20;;
8982;SDS011;20979;59.850;10.660;2024-01-30T00:25:45;8.70;;;5.10;;
8982;SDS011;20979;59.850;10.660;2024-01-30T00:28:12;7.57;;;5.10;;
8982;SDS011;20979;59.850;10.660;2024-01-30T00:30:40;10.50;;;5.20;;
8982;SDS011;20979;59.850;10.660;2024-01-30T00:33:09;8.27;;;4.87;;
8982;SDS011;20979;59.850;10.660;2024-01-30T00:35:36;8.70;;;5.20;;
8982;SDS011;20979;59.850;10.660;2024-01-30T00:38:03;7.53;;;5.10;;
8982;SDS011;20979;59.850;10.660;2024-01-30T00:40:33;8.37;;;5.17;;
8982;SDS011;20979;59.850;10.660;2024-01-30T00:43:00;10.07;;;5.37;;
8982;SDS011;20979;59.850;10.660;2024-01-30T00:45:27;8.60;;;5.63;;
8982;SDS011;20979;59.850;10.660;2024-01-30T00:47:55;7.57;;;5.20;;
8982;SDS011;20979;59.850;10.660;2024-01-30T00:50:25;10.63;;;5.50;;
8982;SDS011;20979;59.850;10.660;2024-01-30T00:52:52;10.50;;;5.97;;
8982;SDS011;20979;59.850;10.660;2024-01-30T00:55:19;8.17;;;5.37;;
8982;SDS011;20979;59.850;10.660;2024-01-30T00:57:47;9.80;;;5.43;;
8982;SDS011;20979;59.850;10.660;2024-01-30T01:00:14;10.47;;;5.70;;
8982;SDS011;20979;59.850;10.660;2024-01-30T01:02:42;10.87;;;5.53;;
8982;SDS011;20979;59.850;10.660;2024-01-30T01:05:09;9.37;;;5.40;;
8982;SDS011;20979;59.850;10.660;2024-01-30T01:07:38;9.07;;;5.33;;
8982;SDS011;20979;59.850;10.660;2024-01-30T01:10:07;10.00;;;5.70;;
8982;SDS011;20979;59.850;10.660;2024-01-30T01:12:36;8.77;;;5.63;;
8982;SDS011;20979;59.850;10.660;2024-01-30T01:15:04;10.33;;;5.30;;
8982;SDS011;20979;59.850;10.660;2024-01-30T01:17:34;7.80;;;5.10;;
8982;SDS011;20979;59.850;10.660;2024-01-30T01:20:02;7.87;;;5.10;;
8982;SDS011;20979;59.850;10.660;2024-01-30T01:22:30;8.67;;;5.30;;
8982;SDS011;20979;59.850;10.660;2024-01-30T01:24:59;9.07;;;5.03;;
8982;SDS011;20979;59.850;10.660;2024-01-30T01:27:26;8.13;;;5.13;;
8982;SDS011;20979;59.850;10.660;2024-01-30T01:29:54;7.40;;;5.33;;
8982;SDS011;20979;59.850;10.660;2024-01-30T01:32:21;9.43;;;5.57;;
8982;SDS011;20979;59.850;10.660;2024-01-30T01:34:48;10.43;;;5.13;;
8982;SDS011;20979;59.850;10.660;2024-01-30T01:37:16;10.27;;;4.90;;
8982;SDS011;20979;59.850;10.660;2024-01-30T01:39:43;9.70;;;5.40;;
8982;SDS011;20979;59.850;10.660;2024-01-30T01:42:12;8.40;;;4.77;;
8982;SDS011;20979;59.850;10.660;2024-01-30T01:44:39;7.37;;;4.90;;
8982;SDS011;20979;59.850;10.660;2024-01-30T01:47:07;7.97;;;4.90;;
8982;SDS011;20979;59.850;10.660;2024-01-30T01:49:34;9.00;;;5.13;;
8982;SDS011;20979;59.850;10.660;2024-01-30T01:52:02;5.67;;;4.33;;
8982;SDS011;20979;59.850;10.660;2024-01-30T01:54:29;11.13;;;5.07;;
8982;SDS011;20979;59.850;10.660;2024-01-30T01:56:57;7.70;;;4.73;;
8982;SDS011;20979;59.850;10.660;2024-01-30T01:59:26;9.10;;;5.07;;
8982;SDS011;20979;59.850;10.660;2024-01-30T02:01:54;9.53;;;4.80;;
8982;SDS011;20979;59.850;10.660;2024-01-30T02:04:22;8.03;;;4.40;;
8982;SDS011;20979;59.850;10.660;2024-01-30T02:06:50;7.83;;;5.03;;
8982;SDS011;20979;59.850;10.660;2024-01-30T02:09:18;6.00;;;4.17;;
8982;SDS011;20979;59.850;10.660;2024-01-30T02:11:45;6.57;;;4.13;;
8982;SDS011;20979;59.850;10.660;2024-01-30T02:14:13;6.43;;;4.00;;
8982;SDS011;20979;59.850;10.660;2024-01-30T02:16:42;6.60;;;3.93;;
8982;SDS011;20979;59.850;10.660;2024-01-30T02:19:09;8.67;;;4.40;;
8982;SDS011;20979;59.850;10.660;2024-01-30T02:21:38;6.20;;;3.97;;
8982;SDS011;20979;59.850;10.660;2024-01-30T02:24:06;8.20;;;3.80;;
8982;SDS011;20979;59.850;10.660;2024-01-30T02:26:33;7.27;;;3.80;;
8982;SDS011;20979;59.850;10.660;2024-01-30T02:29:00;6.77;;;3.93;;
8982;SDS011;20979;59.850;10.660;2024-01-30T02:31:28;5.77;;;3.53;;
8982;SDS011;20979;59.850;10.660;2024-01-30T02:33:55;6.03;;;3.20;;
8982;SDS011;20979;59.850;10.660;2024-01-30T02:36:23;5.57;;;3.07;;
8982;SDS011;20979;59.850;10.660;2024-01-30T05:33:23;7.40;;;3.70;;
8982;SDS011;20979;59.850;10.660;2024-01-30T05:35:51;6.57;;;3.30;;
8982;SDS011;20979;59.850;10.660;2024-01-30T05:38:19;3.73;;;3.10;;
8982;SDS011;20979;59.850;10.660;2024-01-30T05:40:47;4.40;;;2.83;;
8982;SDS011;20979;59.850;10.660;2024-01-30T05:43:14;4.40;;;2.80;;
8982;SDS011;20979;59.850;10.660;2024-01-30T05:45:41;5.33;;;3.13;;
8982;SDS011;20979;59.850;10.660;2024-01-30T05:48:09;5.10;;;3.20;;
8982;SDS011;20979;59.850;10.660;2024-01-30T05:50:38;3.93;;;2.97;;
8982;SDS011;20979;59.850;10.660;2024-01-30T05:53:05;7.63;;;3.10;;
8982;SDS011;20979;59.850;10.660;2024-01-30T05:55:33;4.43;;;3.07;;
8982;SDS011;20979;59.850;10.660;2024-01-30T05:58:00;6.13;;;3.33;;
8982;SDS011;20979;59.850;10.660;2024-01-30T06:00:27;8.60;;;3.27;;
8982;SDS011;20979;59.850;10.660;2024-01-30T06:02:55;5.10;;;3.10;;
8982;SDS011;20979;59.850;10.660;2024-01-30T06:05:22;7.07;;;3.50;;
8982;SDS011;20979;59.850;10.660;2024-01-30T06:07:51;5.43;;;3.10;;
8982;SDS011;20979;59.850;10.660;2024-01-30T06:10:18;4.63;;;3.00;;
8982;SDS011;20979;59.850;10.660;2024-01-30T06:12:46;5.20;;;3.10;;
8982;SDS011;20979;59.850;10.660;2024-01-30T06:15:13;5.37;;;3.13;;
8982;SDS011;20979;59.850;10.660;2024-01-30T06:17:41;7.30;;;3.20;;
8982;SDS011;20979;59.850;10.660;2024-01-30T06:20:08;6.10;;;3.50;;
8982;SDS011;20979;59.850;10.660;2024-01-30T06:22:36;7.00;;;3.80;;
8982;SDS011;20979;59.850;10.660;2024-01-30T06:25:06;5.33;;;3.47;;
8982;SDS011;20979;59.850;10.660;2024-01-30T06:27:33;4.83;;;2.93;;
8982;SDS011;20979;59.850;10.660;2024-01-30T06:30:01;7.07;;;3.23;;
8982;SDS011;20979;59.850;10.660;2024-01-30T06:32:28;6.33;;;2.67;;
8982;SDS011;20979;59.850;10.660;2024-01-30T06:34:59;5.30;;;3.07;;
8982;SDS011;20979;59.850;10.660;2024-01-30T06:37:27;6.23;;;3.10;;
8982;SDS011;20979;59.850;10.660;2024-01-30T06:39:54;6.03;;;2.70;;
8982;SDS011;20979;59.850;10.660;2024-01-30T06:42:23;8.00;;;3.10;;
8982;SDS011;20979;59.850;10.660;2024-01-30T06:44:50;4.33;;;2.50;;
8982;SDS011;20979;59.850;10.660;2024-01-30T06:47:18;7.17;;;2.27;;
8982;SDS011;20979;59.850;10.660;2024-01-30T06:49:45;4.17;;;2.73;;
8982;SDS011;20979;59.850;10.660;2024-01-30T06:52:13;7.33;;;2.57;;
8982;SDS011;20979;59.850;10.660;2024-01-30T06:54:40;7.07;;;2.50;;
8982;SDS011;20979;59.850;10.660;2024-01-30T06:57:08;6.10;;;2.33;;
8982;SDS011;20979;59.850;10.660;2024-01-30T06:59:38;4.90;;;2.50;;
8982;SDS011;20979;59.850;10.660;2024-01-30T07:02:08;4.67;;;2.80;;
8982;SDS011;20979;59.850;10.660;2024-01-30T07:04:36;3.60;;;2.10;;
8982;SDS011;20979;59.850;10.660;2024-01-30T07:07:04;4.73;;;2.30;;
8982;SDS011;20979;59.850;10.660;2024-01-30T07:09:37;3.70;;;2.40;;
8982;SDS011;20979;59.850;10.660;2024-01-30T07:12:05;5.57;;;2.40;;
8982;SDS011;20979;59.850;10.660;2024-01-30T07:14:32;3.63;;;2.30;;
8982;SDS011;20979;59.850;10.660;2024-01-30T07:17:02;6.30;;;2.50;;
8982;SDS011;20979;59.850;10.660;2024-01-30T07:19:29;5.13;;;2.30;;
8982;SDS011;20979;59.850;10.660;2024-01-30T07:21:56;5.00;;;2.23;;
8982;SDS011;20979;59.850;10.660;2024-01-30T07:24:24;6.83;;;2.40;;
8982;SDS011;20979;59.850;10.660;2024-01-30T07:26:51;7.00;;;2.90;;
8982;SDS011;20979;59.850;10.660;2024-01-30T07:29:18;5.83;;;2.80;;
8982;SDS011;20979;59.850;10.660;2024-01-30T07:31:47;7.03;;;3.07;;
8982;SDS011;20979;59.850;10.660;2024-01-30T07:34:16;3.80;;;2.53;;
8982;SDS011;20979;59.850;10.660;2024-01-30T07:36:43;4.93;;;2.40;;
8982;SDS011;20979;59.850;10.660;2024-01-30T07:39:12;3.97;;;2.20;;
8982;SDS011;20979;59.850;10.660;2024-01-30T07:41:39;3.60;;;2.47;;
8982;SDS011;20979;59.850;10.660;2024-01-30T07:44:06;5.10;;;2.60;;
8982;SDS011;20979;59.850;10.660;2024-01-30T07:46:34;6.60;;;2.83;;
8982;SDS011;20979;59.850;10.660;2024-01-30T07:49:01;6.53;;;3.00;;
8982;SDS011;20979;59.850;10.660;2024-01-30T07:51:30;10.13;;;2.80;;
8982;SDS011;20979;59.850;10.660;2024-01-30T07:53:58;6.13;;;2.63;;
8982;SDS011;20979;59.850;10.660;2024-01-30T07:56:25;7.77;;;2.67;;
8982;SDS011;20979;59.850;10.660;2024-01-30T07:58:53;5.50;;;2.30;;
8982;SDS011;20979;59.850;10.660;2024-01-30T08:01:20;5.67;;;2.60;;
8982;SDS011;20979;59.850;10.660;2024-01-30T08:03:47;4.53;;;2.70;;
8982;SDS011;20979;59.850;10.660;2024-01-30T08:06:15;5.10;;;2.60;;
8982;SDS011;20979;59.850;10.660;2024-01-30T08:08:43;6.47;;;2.60;;
8982;SDS011;20979;59.850;10.660;2024-01-30T08:11:11;4.43;;;2.90;;
8982;SDS011;20979;59.850;10.660;2024-01-30T08:13:39;4.37;;;2.37;;
8982;SDS011;20979;59.850;10.660;2024-01-30T08:16:06;5.80;;;2.40;;
8982;SDS011;20979;59.850;10.660;2024-01-30T08:18:34;6.27;;;2.53;;
8982;SDS011;20979;59.850;10.660;2024-01-30T08:21:01;3.57;;;2.43;;
8982;SDS011;20979;59.850;10.660;2024-01-30T08:23:29;3.80;;;2.23;;
8982;SDS011;20979;59.850;10.660;2024-01-30T08:25:58;3.90;;;2.60;;
8982;SDS011;20979;59.850;10.660;2024-01-30T08:28:25;5.07;;;2.60;;
8982;SDS011;20979;59.850;10.660;2024-01-30T08:30:53;4.57;;;2.30;;
8982;SDS011;20979;59.850;10.660;2024-01-30T08:33:20;8.90;;;2.87;;
8982;SDS011;20979;59.850;10.660;2024-01-30T08:35:48;5.53;;;2.80;;
8982;SDS011;20979;59.850;10.660;2024-01-30T08:38:15;5.70;;;2.63;;
8982;SDS011;20979;59.850;10.660;2024-01-30T08:40:42;6.70;;;2.43;;
8982;SDS011;20979;59.850;10.660;2024-01-30T08:43:11;3.47;;;2.50;;
8982;SDS011;20979;59.850;10.660;2024-01-30T08:45:39;8.43;;;2.70;;
8982;SDS011;20979;59.850;10.660;2024-01-30T08:48:07;6.23;;;2.47;;
8982;SDS011;20979;59.850;10.660;2024-01-30T08:50:34;4.17;;;2.57;;
8982;SDS011;20979;59.850;10.660;2024-01-30T08:53:02;6.17;;;2.60;;
8982;SDS011;20979;59.850;10.660;2024-01-30T08:55:29;4.57;;;2.40;;
8982;SDS011;20979;59.850;10.660;2024-01-30T08:57:56;7.37;;;2.47;;
8982;SDS011;20979;59.850;10.660;2024-01-30T09:00:26;5.37;;;2.77;;
8982;SDS011;20979;59.850;10.660;2024-01-30T09:02:53;6.80;;;2.80;;
8982;SDS011;20979;59.850;10.660;2024-01-30T09:05:20;6.90;;;3.17;;
8982;SDS011;20979;59.850;10.660;2024-01-30T09:07:48;6.77;;;3.73;;
8982;SDS011;20979;59.850;10.660;2024-01-30T09:10:15;5.63;;;3.13;;
8982;SDS011;20979;59.850;10.660;2024-01-30T09:12:42;5.50;;;2.70;;
8982;SDS011;20979;59.850;10.660;2024-01-30T09:15:10;5.13;;;2.90;;
8982;SDS011;20979;59.850;10.660;2024-01-30T09:17:39;4.73;;;3.13;;
8982;SDS011;20979;59.850;10.660;2024-01-30T09:20:06;8.07;;;3.60;;
8982;SDS011;20979;59.850;10.660;2024-01-30T09:22:34;5.37;;;3.30;;
8982;SDS011;20979;59.850;10.660;2024-01-30T09:25:02;8.73;;;3.83;;
8982;SDS011;20979;59.850;10.660;2024-01-30T09:27:29;5.87;;;3.30;;
8982;SDS011;20979;59.850;10.660;2024-01-30T09:29:57;6.00;;;3.73;;
8982;SDS011;20979;59.850;10.660;2024-01-30T09:32:24;5.37;;;3.00;;
8982;SDS011;20979;59.850;10.660;2024-01-30T09:34:53;5.50;;;3.00;;
8982;SDS011;20979;59.850;10.660;2024-01-30T09:37:20;5.87;;;2.90;;
8982;SDS011;20979;59.850;10.660;2024-01-30T09:39:47;5.00;;;2.50;;
8982;SDS011;20979;59.850;10.660;2024-01-30T09:42:17;7.53;;;2.83;;
8982;SDS011;20979;59.850;10.660;2024-01-30T09:44:47;5.80;;;2.70;;
8982;SDS011;20979;59.850;10.660;2024-01-30T09:47:18;6.93;;;2.57;;
8982;SDS011;20979;59.850;10.660;2024-01-30T09:49:45;8.80;;;2.97;;
8982;SDS011;20979;59.850;10.660;2024-01-30T09:52:14;10.50;;;2.90;;
8982;SDS011;20979;59.850;10.660;2024-01-30T09:54:41;6.77;;;2.90;;
8982;SDS011;20979;59.850;10.660;2024-01-30T09:57:09;5.80;;;2.97;;
8982;SDS011;20979;59.850;10.660;2024-01-30T09:59:36;5.80;;;3.20;;
8982;SDS011;20979;59.850;10.660;2024-01-30T10:02:04;5.27;;;2.97;;
8982;SDS011;20979;59.850;10.660;2024-01-30T10:04:31;7.60;;;3.20;;
8982;SDS011;20979;59.850;10.660;2024-01-30T10:07:00;5.27;;;2.57;;
8982;SDS011;20979;59.850;10.660;2024-01-30T10:09:29;7.37;;;2.97;;
8982;SDS011;20979;59.850;10.660;2024-01-30T10:11:58;6.37;;;2.80;;
8982;SDS011;20979;59.850;10.660;2024-01-30T10:14:26;5.57;;;2.93;;
8982;SDS011;20979;59.850;10.660;2024-01-30T10:16:55;6.23;;;3.20;;
8982;SDS011;20979;59.850;10.660;2024-01-30T10:19:22;7.10;;;3.10;;
8982;SDS011;20979;59.850;10.660;2024-01-30T10:21:50;6.17;;;3.10;;
8982;SDS011;20979;59.850;10.660;2024-01-30T10:24:17;5.53;;;2.70;;
8982;SDS011;20979;59.850;10.660;2024-01-30T10:26:46;5.67;;;3.10;;
8982;SDS011;20979;59.850;10.660;2024-01-30T10:29:13;7.27;;;3.00;;
8982;SDS011;20979;59.850;10.660;2024-01-30T10:31:41;5.30;;;2.83;;
8982;SDS011;20979;59.850;10.660;2024-01-30T10:34:09;7.87;;;3.40;;
8982;SDS011;20979;59.850;10.660;2024-01-30T10:36:39;6.43;;;3.13;;
8982;SDS011;20979;59.850;10.660;2024-01-30T10:39:06;8.10;;;3.90;;
8982;SDS011;20979;59.850;10.660;2024-01-30T10:41:43;7.87;;;3.93;;
8982;SDS011;20979;59.850;10.660;2024-01-30T10:44:12;9.53;;;4.17;;
8982;SDS011;20979;59.850;10.660;2024-01-30T10:46:42;8.17;;;4.23;;
8982;SDS011;20979;59.850;10.660;2024-01-30T10:49:10;9.07;;;3.90;;
8982;SDS011;20979;59.850;10.660;2024-01-30T10:51:40;8.50;;;3.90;;
8982;SDS011;20979;59.850;10.660;2024-01-30T10:54:08;6.40;;;3.87;;
8982;SDS011;20979;59.850;10.660;2024-01-30T10:56:36;7.00;;;3.27;;
8982;SDS011;20979;59.850;10.660;2024-01-30T10:59:03;7.07;;;3.50;;
8982;SDS011;20979;59.850;10.660;2024-01-30T11:01:33;6.50;;;3.10;;
8982;SDS011;20979;59.850;10.660;2024-01-30T11:04:02;7.60;;;3.07;;
8982;SDS011;20979;59.850;10.660;2024-01-30T11:06:30;8.20;;;3.20;;
8982;SDS011;20979;59.850;10.660;2024-01-30T11:09:00;6.47;;;3.50;;
8982;SDS011;20979;59.850;10.660;2024-01-30T11:11:29;10.73;;;3.60;;
8982;SDS011;20979;59.850;10.660;2024-01-30T11:14:00;7.70;;;3.70;;
8982;SDS011;20979;59.850;10.660;2024-01-30T11:16:30;8.30;;;3.97;;
8982;SDS011;20979;59.850;10.660;2024-01-30T11:19:00;7.07;;;3.53;;
8982;SDS011;20979;59.850;10.660;2024-01-30T11:21:28;9.10;;;4.27;;
8982;SDS011;20979;59.850;10.660;2024-01-30T11:23:55;9.87;;;4.20;;
8982;SDS011;20979;59.850;10.660;2024-01-30T11:26:27;10.33;;;4.10;;
8982;SDS011;20979;59.850;10.660;2024-01-30T11:28:55;8.77;;;4.33;;
8982;SDS011;20979;59.850;10.660;2024-01-30T11:31:23;8.80;;;4.27;;
8982;SDS011;20979;59.850;10.660;2024-01-30T11:33:52;7.53;;;3.90;;
8982;SDS011;20979;59.850;10.660;2024-01-30T11:36:23;9.30;;;4.20;;
8982;SDS011;20979;59.850;10.660;2024-01-30T11:38:52;9.80;;;4.60;;
8982;SDS011;20979;59.850;10.660;2024-01-30T11:41:19;9.43;;;4.43;;
8982;SDS011;20979;59.850;10.660;2024-01-30T11:43:51;4.70;;;3.93;;
8982;SDS011;20979;59.850;10.660;2024-01-30T11:46:19;6.57;;;4.03;;
8982;SDS011;20979;59.850;10.660;2024-01-30T11:48:46;8.07;;;4.13;;
8982;SDS011;20979;59.850;10.660;2024-01-30T11:51:14;9.37;;;4.10;;
8982;SDS011;20979;59.850;10.660;2024-01-30T11:53:45;7.43;;;3.73;;
8982;SDS011;20979;59.850;10.660;2024-01-30T11:56:16;7.00;;;4.03;;
8982;SDS011;20979;59.850;10.660;2024-01-30T11:58:44;5.70;;;4.23;;
8982;SDS011;20979;59.850;10.660;2024-01-30T12:01:11;7.00;;;4.40;;
8982;SDS011;20979;59.850;10.660;2024-01-30T12:03:39;5.10;;;4.00;;
8982;SDS011;20979;59.850;10.660;2024-01-30T12:06:06;6.47;;;3.90;;
8982;SDS011;20979;59.850;10.660;2024-01-30T12:08:34;6.37;;;4.37;;
8982;SDS011;20979;59.850;10.660;2024-01-30T12:11:03;9.83;;;5.97;;
8982;SDS011;20979;59.850;10.660;2024-01-30T12:13:33;24.40;;;14.40;;
8982;SDS011;20979;59.850;10.660;2024-01-30T12:16:01;31.13;;;17.00;;
8982;SDS011;20979;59.850;10.660;2024-01-30T12:18:28;7.67;;;5.00;;
8982;SDS011;20979;59.850;10.660;2024-01-30T12:20:59;8.03;;;5.60;;
8982;SDS011;20979;59.850;10.660;2024-01-30T12:23:26;6.43;;;5.30;;
8982;SDS011;20979;59.850;10.660;2024-01-30T12:25:54;5.60;;;3.60;;
8982;SDS011;20979;59.850;10.660;2024-01-30T12:28:23;9.53;;;4.27;;
8982;SDS011;20979;59.850;10.660;2024-01-30T12:30:50;8.50;;;4.43;;
8982;SDS011;20979;59.850;10.660;2024-01-30T12:33:21;8.63;;;5.07;;
8982;SDS011;20979;59.850;10.660;2024-01-30T12:35:49;7.57;;;4.13;;
8982;SDS011;20979;59.850;10.660;2024-01-30T12:38:16;9.30;;;4.90;;
8982;SDS011;20979;59.850;10.660;2024-01-30T12:40:44;9.30;;;4.53;;
8982;SDS011;20979;59.850;10.660;2024-01-30T12:43:13;5.07;;;3.57;;
8982;SDS011;20979;59.850;10.660;2024-01-30T12:45:42;4.73;;;3.30;;
8982;SDS011;20979;59.850;10.660;2024-01-30T12:48:10;4.40;;;3.53;;
8982;SDS011;20979;59.850;10.660;2024-01-30T12:50:37;5.30;;;3.47;;
8982;SDS011;20979;59.850;10.660;2024-01-30T12:53:05;5.20;;;3.10;;
8982;SDS011;20979;59.850;10.660;2024-01-30T12:55:32;5.57;;;3.37;;
8982;SDS011;20979;59.850;10.660;2024-01-30T12:57:59;4.63;;;3.50;;
8982;SDS011;20979;59.850;10.660;2024-01-30T13:00:28;4.90;;;3.50;;
8982;SDS011;20979;59.850;10.660;2024-01-30T13:02:57;4.73;;;3.70;;
8982;SDS011;20979;59.850;10.660;2024-01-30T13:05:24;8.13;;;3.90;;
8982;SDS011;20979;59.850;10.660;2024-01-30T13:07:51;6.67;;;4.17;;
8982;SDS011;20979;59.850;10.660;2024-01-30T13:10:19;7.10;;;4.23;;
8982;SDS011;20979;59.850;10.660;2024-01-30T13:12:46;5.70;;;3.97;;
8982;SDS011;20979;59.850;10.660;2024-01-30T13:15:13;7.33;;;3.90;;
8982;SDS011;20979;59.850;10.660;2024-01-30T13:17:41;6.70;;;3.97;;
8982;SDS011;20979;59.850;10.660;2024-01-30T13:20:11;6.10;;;3.77;;
8982;SDS011;20979;59.850;10.660;2024-01-30T13:22:41;6.90;;;4.10;;
8982;SDS011;20979;59.850;10.660;2024-01-30T13:25:09;7.23;;;3.80;;
8982;SDS011;20979;59.850;10.660;2024-01-30T13:27:36;6.47;;;3.47;;
8982;SDS011;20979;59.850;10.660;2024-01-30T13:30:04;7.93;;;3.90;;
8982;SDS011;20979;59.850;10.660;2024-01-30T13:32:32;6.97;;;4.20;;
8982;SDS011;20979;59.850;10.660;2024-01-30T13:34:59;6.93;;;3.40;;
8982;SDS011;20979;59.850;10.660;2024-01-30T13:37:28;6.33;;;3.80;;
8982;SDS011;20979;59.850;10.660;2024-01-30T13:39:56;5.10;;;3.60;;
8982;SDS011;20979;59.850;10.660;2024-01-30T13:42:23;6.33;;;3.77;;
8982;SDS011;20979;59.850;10.660;2024-01-30T13:44:51;5.03;;;3.37;;
8982;SDS011;20979;59.850;10.660;2024-01-30T13:47:18;6.83;;;3.67;;
8982;SDS011;20979;59.850;10.660;2024-01-30T13:49:46;4.93;;;3.60;;
8982;SDS011;20979;59.850;10.660;2024-01-30T13:52:14;5.80;;;3.83;;
8982;SDS011;20979;59.850;10.660;2024-01-30T13:54:42;8.63;;;4.70;;
8982;SDS011;20979;59.850;10.660;2024-01-30T13:57:10;6.67;;;4.20;;
8982;SDS011;20979;59.850;10.660;2024-01-30T13:59:37;6.10;;;4.07;;
8982;SDS011;20979;59.850;10.660;2024-01-30T14:02:06;7.87;;;4.47;;
8982;SDS011;20979;59.850;10.660;2024-01-30T14:04:35;4.03;;;3.07;;
8982;SDS011;20979;59.850;10.660;2024-01-30T14:07:03;4.37;;;3.00;;
8982;SDS011;20979;59.850;10.660;2024-01-30T14:09:31;3.47;;;2.60;;
8982;SDS011;20979;59.850;10.660;2024-01-30T14:12:00;3.10;;;2.70;;
8982;SDS011;20979;59.850;10.660;2024-01-30T14:14:28;5.47;;;2.93;;
8982;SDS011;20979;59.850;10.660;2024-01-30T14:16:55;2.97;;;2.50;;
8982;SDS011;20979;59.850;10.660;2024-01-30T14:19:23;4.83;;;2.60;;
8982;SDS011;20979;59.850;10.660;2024-01-30T14:21:50;3.73;;;2.93;;
8982;SDS011;20979;59.850;10.660;2024-01-30T14:24:17;3.23;;;2.70;;
8982;SDS011;20979;59.850;10.660;2024-01-30T14:26:45;3.47;;;2.90;;
8982;SDS011;20979;59.850;10.660;2024-01-30T14:29:14;2.60;;;2.40;;
8982;SDS011;20979;59.850;10.660;2024-01-30T14:31:41;2.80;;;2.53;;
8982;SDS011;20979;59.850;10.660;2024-01-30T14:34:08;3.83;;;2.60;;
8982;SDS011;20979;59.850;10.660;2024-01-30T14:36:37;5.27;;;3.30;;
8982;SDS011;20979;59.850;10.660;2024-01-30T14:39:05;5.83;;;3.17;;
8982;SDS011;20979;59.850;10.660;2024-01-30T14:41:33;6.00;;;3.50;;
8982;SDS011;20979;59.850;10.660;2024-01-30T14:44:00;4.97;;;3.10;;
8982;SDS011;20979;59.850;10.660;2024-01-30T14:46:29;3.47;;;2.67;;
8982;SDS011;20979;59.850;10.660;2024-01-30T14:48:57;4.30;;;2.90;;
8982;SDS011;20979;59.850;10.660;2024-01-30T14:51:24;6.50;;;3.00;;
8982;SDS011;20979;59.850;10.660;2024-01-30T14:53:51;3.03;;;2.73;;
8982;SDS011;20979;59.850;10.660;2024-01-30T14:56:19;4.70;;;3.10;;
8982;SDS011;20979;59.850;10.660;2024-01-30T14:58:46;3.57;;;2.97;;
8982;SDS011;20979;59.850;10.660;2024-01-30T15:01:14;4.30;;;2.90;;
8982;SDS011;20979;59.850;10.660;2024-01-30T15:03:43;4.30;;;2.83;;
8982;SDS011;20979;59.850;10.660;2024-01-30T15:06:11;3.17;;;2.77;;
8982;SDS011;20979;59.850;10.660;2024-01-30T15:08:39;4.03;;;2.83;;
8982;SDS011;20979;59.850;10.660;2024-01-30T15:11:07;4.37;;;3.00;;
8982;SDS011;20979;59.850;10.660;2024-01-30T15:13:34;4.87;;;2.97;;
8982;SDS011;20979;59.850;10.660;2024-01-30T15:16:02;4.57;;;3.20;;
8982;SDS011;20979;59.850;10.660;2024-01-30T15:18:30;4.03;;;3.47;;
8982;SDS011;20979;59.850;10.660;2024-01-30T15:20:59;5.43;;;3.00;;
8982;SDS011;20979;59.850;10.660;2024-01-30T15:23:27;5.17;;;3.17;;
8982;SDS011;20979;59.850;10.660;2024-01-30T15:25:54;5.00;;;3.30;;
8982;SDS011;20979;59.850;10.660;2024-01-30T15:28:22;5.40;;;3.53;;
8982;SDS011;20979;59.850;10.660;2024-01-30T15:30:51;5.27;;;3.50;;
8982;SDS011;20979;59.850;10.660;2024-01-30T15:33:18;4.90;;;3.70;;
8982;SDS011;20979;59.850;10.660;2024-01-30T15:35:45;4.07;;;2.93;;
8982;SDS011;20979;59.850;10.660;2024-01-30T15:38:14;4.13;;;3.40;;
8982;SDS011;20979;59.850;10.660;2024-01-30T15:40:42;5.23;;;3.37;;
8982;SDS011;20979;59.850;10.660;2024-01-30T15:43:09;4.47;;;3.57;;
8982;SDS011;20979;59.850;10.660;2024-01-30T15:45:37;6.17;;;3.40;;
8982;SDS011;20979;59.850;10.660;2024-01-30T15:48:04;6.07;;;3.73;;
8982;SDS011;20979;59.850;10.660;2024-01-30T15:50:32;4.43;;;3.33;;
8982;SDS011;20979;59.850;10.660;2024-01-30T15:52:59;5.57;;;3.17;;
8982;SDS011;20979;59.850;10.660;2024-01-30T15:55:28;5.07;;;3.07;;
8982;SDS011;20979;59.850;10.660;2024-01-30T15:57:55;4.10;;;3.30;;
8982;SDS011;20979;59.850;10.660;2024-01-30T16:00:23;5.37;;;3.27;;
8982;SDS011;20979;59.850;10.660;2024-01-30T16:02:50;6.23;;;3.37;;
8982;SDS011;20979;59.850;10.660;2024-01-30T16:05:17;7.43;;;3.60;;
8982;SDS011;20979;59.850;10.660;2024-01-30T16:07:45;4.57;;;3.47;;
8982;SDS011;20979;59.850;10.660;2024-01-30T16:10:12;5.63;;;3.53;;
8982;SDS011;20979;59.850;10.660;2024-01-30T16:12:43;6.80;;;3.50;;
8982;SDS011;20979;59.850;10.660;2024-01-30T16:15:11;6.83;;;3.80;;
8982;SDS011;20979;59.850;10.660;2024-01-30T16:17:38;7.17;;;4.47;;
8982;SDS011;20979;59.850;10.660;2024-01-30T16:20:06;6.73;;;4.50;;
8982;SDS011;20979;59.850;10.660;2024-01-30T16:22:34;6.30;;;3.87;;
8982;SDS011;20979;59.850;10.660;2024-01-30T16:25:01;5.50;;;4.03;;
8982;SDS011;20979;59.850;10.660;2024-01-30T16:27:29;6.97;;;4.20;;
8982;SDS011;20979;59.850;10.660;2024-01-30T16:29:58;5.63;;;3.53;;
8982;SDS011;20979;59.850;10.660;2024-01-30T16:32:25;7.27;;;3.33;;
8982;SDS011;20979;59.850;10.660;2024-01-30T16:34:56;3.67;;;2.80;;
8982;SDS011;20979;59.850;10.660;2024-01-30T16:37:24;6.33;;;3.40;;
8982;SDS011;20979;59.850;10.660;2024-01-30T16:39:52;5.30;;;3.30;;
8982;SDS011;20979;59.850;10.660;2024-01-30T16:42:19;7.33;;;3.13;;
8982;SDS011;20979;59.850;10.660;2024-01-30T16:44:46;5.07;;;3.00;;
8982;SDS011;20979;59.850;10.660;2024-01-30T16:47:15;5.57;;;3.00;;
8982;SDS011;20979;59.850;10.660;2024-01-30T16:49:43;4.63;;;3.03;;
8982;SDS011;20979;59.850;10.660;2024-01-30T16:52:10;5.07;;;2.70;;
8982;SDS011;20979;59.850;10.660;2024-01-30T16:54:38;4.97;;;3.17;;
8982;SDS011;20979;59.850;10.660;2024-01-30T16:57:05;4.47;;;2.60;;
8982;SDS011;20979;59.850;10.660;2024-01-30T16:59:33;6.10;;;3.20;;
8982;SDS011;20979;59.850;10.660;2024-01-30T17:02:00;5.40;;;3.00;;
8982;SDS011;20979;59.850;10.660;2024-01-30T17:04:30;8.97;;;3.23;;
8982;SDS011;20979;59.850;10.660;2024-01-30T17:06:58;4.23;;;2.67;;
8982;SDS011;20979;59.850;10.660;2024-01-30T17:09:27;5.70;;;2.70;;
8982;SDS011;20979;59.850;10.660;2024-01-30T17:11:54;6.43;;;3.10;;
8982;SDS011;20979;59.850;10.660;2024-01-30T17:14:22;6.00;;;3.07;;
8982;SDS011;20979;59.850;10.660;2024-01-30T17:16:49;4.90;;;2.53;;
8982;SDS011;20979;59.850;10.660;2024-01-30T17:19:17;3.33;;;2.43;;
8982;SDS011;20979;59.850;10.660;2024-01-30T17:21:46;6.13;;;2.87;;
8982;SDS011;20979;59.850;10.660;2024-01-30T17:24:14;8.43;;;2.93;;
8982;SDS011;20979;59.850;10.660;2024-01-30T17:26:41;5.97;;;2.90;;
8982;SDS011;20979;59.850;10.660;2024-01-30T17:29:10;4.00;;;2.90;;
8982;SDS011;20979;59.850;10.660;2024-01-30T17:31:39;4.87;;;2.73;;
8982;SDS011;20979;59.850;10.660;2024-01-30T17:34:09;4.03;;;2.70;;
8982;SDS011;20979;59.850;10.660;2024-01-30T17:36:36;6.37;;;2.60;;
8982;SDS011;20979;59.850;10.660;2024-01-30T17:39:05;3.53;;;2.80;;
8982;SDS011;20979;59.850;10.660;2024-01-30T17:41:33;4.97;;;2.57;;
8982;SDS011;20979;59.850;10.660;2024-01-30T17:44:01;4.30;;;2.93;;
8982;SDS011;20979;59.850;10.660;2024-01-30T17:46:28;5.33;;;3.20;;